Time;durP1;ratioP1;P1;durP2;ratioP2;P2;SDS_P1;SDS_P2;PMS_P1;PMS_P2;Temp;Humidity;BMP_temperature;BMP_pressure;BME280_temperature;BME280_humidity;BME280_pressure;Samples;Min_cycle;Max_cycle;Signal;HPM_P1;HPM_P2
2024/02/25 00:00:35;;;;;;;7.95;3.97;;;;;;;-1.73;100.00;96309.03;5015917;28;20127;-63
2024/02/25 00:03:02;;;;;;;6.65;3.88;;;;;;;-1.77;100.00;96313.09;5017643;28;20116;-62
2024/02/25 00:05:31;;;;;;;7.97;4.10;;;;;;;-1.89;100.00;96307.53;5018858;28;20045;-63
2024/02/25 00:07:59;;;;;;;6.90;3.92;;;;;;;-1.83;100.00;96309.41;5020130;28;20048;-63
2024/02/25 00:10:26;;;;;;;10.13;3.85;;;;;;;-1.88;100.00;96309.97;5020197;28;20230;-62
2024/02/25 00:12:52;;;;;;;7.45;4.47;;;;;;;-1.89;100.00;96316.31;5017540;28;20858;-62
2024/02/25 00:15:19;;;;;;;6.65;3.75;;;;;;;-1.90;100.00;96319.16;5024804;28;20053;-64
2024/02/25 00:17:45;;;;;;;8.20;3.92;;;;;;;-1.93;100.00;96319.56;5021896;28;20540;-63
2024/02/25 00:20:12;;;;;;;6.85;4.00;;;;;;;-2.00;100.00;96317.69;5024955;28;20044;-64
2024/02/25 00:22:38;;;;;;;9.38;4.03;;;;;;;-2.02;100.00;96319.75;5023162;28;20045;-62
2024/02/25 00:25:05;;;;;;;10.13;4.82;;;;;;;-2.00;100.00;96323.00;5022594;28;20525;-64
2024/02/25 00:27:32;;;;;;;7.60;4.10;;;;;;;-1.98;100.00;96328.91;5017762;28;20112;-63
2024/02/25 00:29:59;;;;;;;8.65;3.50;;;;;;;-1.99;100.00;96327.28;5022931;28;20121;-62
2024/02/25 00:32:27;;;;;;;8.80;3.80;;;;;;;-1.85;100.00;96319.38;5019738;28;20041;-63
2024/02/25 00:34:54;;;;;;;6.03;3.33;;;;;;;-2.00;100.00;96314.22;5026409;28;20107;-64
2024/02/25 00:37:21;;;;;;;8.52;3.33;;;;;;;-1.99;100.00;96311.38;5022706;28;20508;-61
2024/02/25 00:39:47;;;;;;;4.70;2.78;;;;;;;-2.04;100.00;96316.47;5026698;28;20489;-64
2024/02/25 00:42:14;;;;;;;7.55;3.20;;;;;;;-2.09;100.00;96321.53;5023378;28;20563;-62
2024/02/25 00:44:43;;;;;;;8.07;3.47;;;;;;;-2.20;100.00;96320.28;5026471;28;20049;-63
2024/02/25 00:47:09;;;;;;;6.53;3.25;;;;;;;-2.19;100.00;96313.13;5023294;28;20125;-63
2024/02/25 00:49:36;;;;;;;6.50;3.95;;;;;;;-2.15;100.00;96320.50;5019785;28;20108;-63
2024/02/25 00:52:03;;;;;;;8.82;4.93;;;;;;;-2.15;100.00;96317.84;5019586;28;20679;-62
2024/02/25 00:54:29;;;;;;;9.15;3.70;;;;;;;-2.10;100.00;96318.06;5018611;28;20497;-63
2024/02/25 00:56:56;;;;;;;7.30;3.92;;;;;;;-2.17;100.00;96319.06;5027104;28;20049;-64
2024/02/25 00:59:23;;;;;;;6.03;4.35;;;;;;;-2.13;100.00;96317.66;5022837;28;20144;-62
2024/02/25 01:01:50;;;;;;;6.95;4.40;;;;;;;-2.11;100.00;96313.78;5019875;28;20048;-62
2024/02/25 01:04:21;;;;;;;6.50;3.40;;;;;;;-2.14;100.00;96311.50;5025389;28;20041;-63
2024/02/25 01:06:48;;;;;;;6.68;3.80;;;;;;;-2.10;100.00;96322.56;5022130;28;20057;-63
2024/02/25 01:09:15;;;;;;;7.43;4.00;;;;;;;-2.13;100.00;96317.66;5020708;28;20527;-63
2024/02/25 01:11:41;;;;;;;7.03;3.92;;;;;;;-2.18;100.00;96314.78;5026279;28;20545;-62
2024/02/25 01:14:08;;;;;;;4.95;3.00;;;;;;;-2.15;100.00;96309.06;5028298;28;20552;-63
2024/02/25 01:16:35;;;;;;;13.48;4.28;;;;;;;-2.07;100.00;96306.25;5026019;28;20509;-63
2024/02/25 01:19:01;;;;;;;9.15;4.10;;;;;;;-2.09;100.00;96313.59;5021211;28;20141;-63
2024/02/25 01:21:28;;;;;;;6.47;3.03;;;;;;;-2.10;100.00;96301.34;5022140;28;20061;-63
2024/02/25 01:23:54;;;;;;;9.80;4.03;;;;;;;-2.05;100.00;96300.75;5020307;28;20045;-63
2024/02/25 01:26:21;;;;;;;6.35;3.47;;;;;;;-2.03;100.00;96298.72;5024763;28;20587;-63
2024/02/25 01:28:48;;;;;;;6.78;3.05;;;;;;;-2.09;100.00;96293.16;5021203;28;20785;-63
2024/02/25 01:31:18;;;;;;;8.52;3.30;;;;;;;-1.95;100.00;96295.91;5026083;28;20087;-63
2024/02/25 01:33:44;;;;;;;5.75;3.08;;;;;;;-1.88;100.00;96293.25;5020860;28;20092;-63
2024/02/25 01:36:11;;;;;;;9.65;3.13;;;;;;;-2.04;100.00;96284.63;5023327;28;20500;-63
2024/02/25 01:38:38;;;;;;;6.95;3.15;;;;;;;-2.10;100.00;96290.75;5022701;28;20056;-63
2024/02/25 01:41:05;;;;;;;6.47;3.03;;;;;;;-2.07;100.00;96290.31;5019902;28;20068;-64
2024/02/25 01:43:36;;;;;;;7.00;3.45;;;;;;;-2.07;100.00;96290.31;5020509;28;20539;-63
2024/02/25 01:46:03;;;;;;;5.28;3.33;;;;;;;-1.79;100.00;96297.38;5024341;28;20048;-63
2024/02/25 01:48:29;;;;;;;6.07;3.40;;;;;;;-1.72;100.00;96297.38;5022590;28;20441;-63
2024/02/25 01:50:56;;;;;;;7.43;3.33;;;;;;;-1.74;100.00;96294.94;5022265;28;20214;-62
2024/02/25 01:53:23;;;;;;;6.57;3.20;;;;;;;-1.76;100.00;96294.31;5019507;28;20387;-62
2024/02/25 01:55:51;;;;;;;6.97;3.58;;;;;;;-1.84;100.00;96286.53;5032113;28;20043;-63
2024/02/25 01:58:18;;;;;;;6.97;3.10;;;;;;;-1.83;100.00;96288.97;5026210;28;20045;-64
2024/02/25 02:00:46;;;;;;;5.38;2.70;;;;;;;-1.77;100.00;96286.56;5023036;28;20546;-63
2024/02/25 02:03:13;;;;;;;3.65;2.45;;;;;;;-1.80;100.00;96277.16;4998936;28;20053;-63
2024/02/25 02:05:39;;;;;;;5.03;2.78;;;;;;;-1.67;100.00;96283.53;5015931;28;20057;-64
2024/02/25 02:08:07;;;;;;;8.55;2.95;;;;;;;-1.63;100.00;96272.28;5019742;28;20640;-64
2024/02/25 02:10:33;;;;;;;5.50;2.80;;;;;;;-1.58;100.00;96263.72;5027789;28;20049;-64
2024/02/25 02:13:05;;;;;;;4.80;2.53;;;;;;;-1.50;100.00;96268.03;5017709;28;20034;-63
2024/02/25 02:15:31;;;;;;;;;;;;;;;-1.40;100.00;96263.13;5016101;28;20118;-63
2024/02/25 02:17:58;;;;;;;6.50;2.95;;;;;;;-1.49;100.00;96267.00;5021475;28;19921;-64
2024/02/25 02:20:25;;;;;;;5.28;2.58;;;;;;;-1.43;100.00;96263.53;5017730;28;20068;-61
2024/02/25 02:22:52;;;;;;;7.60;3.10;;;;;;;-1.27;100.00;96257.00;5025628;28;20121;-63
2024/02/25 02:25:18;;;;;;;6.28;3.05;;;;;;;-1.11;100.00;96260.28;5025091;28;20037;-63
2024/02/25 02:27:45;;;;;;;6.25;3.00;;;;;;;-0.85;100.00;96245.34;5020484;28;20103;-62
2024/02/25 02:30:12;;;;;;;6.30;2.92;;;;;;;-0.82;100.00;96247.56;5021541;28;20077;-64
2024/02/25 02:32:39;;;;;;;7.55;3.70;;;;;;;-0.64;100.00;96251.41;5016640;28;20034;-61
2024/02/25 02:35:07;;;;;;;9.77;3.50;;;;;;;-0.71;100.00;96230.16;5023717;28;20063;-62
2024/02/25 02:37:33;;;;;;;5.65;3.10;;;;;;;-0.49;100.00;96228.06;5019977;28;20041;-63
2024/02/25 02:40:00;;;;;;;8.82;3.10;;;;;;;-0.53;100.00;96232.16;5012580;28;20111;-62
2024/02/25 02:42:28;;;;;;;5.75;2.92;;;;;;;-0.51;100.00;96229.31;5021206;28;20042;-63
2024/02/25 02:44:55;;;;;;;4.75;2.88;;;;;;;-0.46;100.00;96213.53;5016927;28;20599;-62
2024/02/25 02:47:23;;;;;;;6.18;3.13;;;;;;;-0.32;100.00;96220.44;5023090;28;20506;-61
2024/02/25 02:49:50;;;;;;;6.15;3.05;;;;;;;-0.23;100.00;96218.34;5020536;28;20115;-63
2024/02/25 02:52:18;;;;;;;5.50;3.05;;;;;;;-0.20;100.00;96225.91;5027013;28;20040;-63
2024/02/25 02:54:45;;;;;;;5.47;2.65;;;;;;;-0.14;100.00;96222.41;5023256;28;20055;-61
2024/02/25 02:57:11;;;;;;;6.35;2.80;;;;;;;-0.13;100.00;96217.91;5016232;28;20536;-63
2024/02/25 02:59:38;;;;;;;3.83;2.50;;;;;;;-0.05;100.00;96219.50;5015278;28;20041;-63
2024/02/25 03:02:04;;;;;;;5.07;2.65;;;;;;;-0.02;100.00;96219.06;5020708;28;20095;-62
2024/02/25 03:04:32;;;;;;;6.13;3.40;;;;;;;0.05;100.00;96214.53;5026825;28;20072;-63
2024/02/25 03:06:58;;;;;;;4.53;3.13;;;;;;;0.05;100.00;96211.06;5024026;28;20041;-63
2024/02/25 03:09:25;;;;;;;5.82;3.20;;;;;;;0.05;100.00;96209.22;5021756;28;20045;-61
2024/02/25 03:11:52;;;;;;;7.00;3.05;;;;;;;0.02;100.00;96201.66;5014545;28;20041;-62
2024/02/25 03:14:18;;;;;;;5.32;3.08;;;;;;;0.03;100.00;96207.81;5024950;28;20166;-63
2024/02/25 03:16:45;;;;;;;6.03;2.83;;;;;;;0.09;100.00;96202.44;5018848;28;20041;-62
2024/02/25 03:19:11;;;;;;;4.60;2.80;;;;;;;0.06;100.00;96208.19;5019587;28;20042;-63
2024/02/25 03:21:42;;;;;;;7.43;3.00;;;;;;;0.04;100.00;96206.78;5018693;28;20114;-64
2024/02/25 03:24:11;;;;;;;5.55;2.72;;;;;;;0.05;100.00;96203.91;5014084;28;20492;-63
2024/02/25 03:26:38;;;;;;;6.35;3.13;;;;;;;0.06;100.00;96207.34;5024483;28;20048;-62
2024/02/25 03:29:06;;;;;;;5.28;2.70;;;;;;;0.21;100.00;96210.56;5018094;28;20055;-62
2024/02/25 03:31:37;;;;;;;5.68;2.97;;;;;;;0.16;100.00;96197.06;5012006;28;20116;-62
2024/02/25 03:34:03;;;;;;;4.50;2.63;;;;;;;0.15;100.00;96202.59;5019688;28;20029;-62
2024/02/25 03:36:30;;;;;;;5.35;2.50;;;;;;;0.28;100.00;96199.03;5021291;28;20682;-62
2024/02/25 03:38:56;;;;;;;4.30;2.50;;;;;;;0.35;100.00;96199.81;5020205;28;20046;-62
2024/02/25 03:41:23;;;;;;;4.28;2.38;;;;;;;0.25;100.00;96197.63;5016797;28;20042;-63
2024/02/25 03:43:50;;;;;;;4.85;2.55;;;;;;;0.19;100.00;96199.28;5013643;28;20057;-63
2024/02/25 03:46:17;;;;;;;3.65;2.10;;;;;;;0.16;100.00;96196.25;5020788;28;20056;-63
2024/02/25 03:48:43;;;;;;;4.15;2.17;;;;;;;0.16;100.00;96188.25;5019105;28;20038;-62
2024/02/25 03:51:10;;;;;;;5.57;2.80;;;;;;;-0.01;100.00;96196.75;5018743;28;20057;-62
2024/02/25 03:53:37;;;;;;;5.43;2.60;;;;;;;-0.07;100.00;96176.31;5015928;28;20042;-63
2024/02/25 03:56:04;;;;;;;5.35;2.10;;;;;;;0.02;100.00;96187.53;5021009;28;20352;-62
2024/02/25 03:58:30;;;;;;;4.35;2.50;;;;;;;0.21;100.00;96188.44;5017245;28;20502;-63
2024/02/25 04:00:57;;;;;;;4.43;2.40;;;;;;;0.32;100.00;96190.41;5024659;28;20053;-63
2024/02/25 04:03:23;;;;;;;4.05;2.10;;;;;;;0.37;100.00;96193.25;5013573;28;20049;-63
2024/02/25 04:05:50;;;;;;;3.40;1.92;;;;;;;0.59;100.00;96187.53;5016874;28;20041;-62
2024/02/25 04:08:17;;;;;;;5.15;2.40;;;;;;;0.55;100.00;96188.22;5030122;28;20037;-62
2024/02/25 04:10:44;;;;;;;3.53;1.85;;;;;;;0.44;100.00;96181.72;5031747;28;20679;-62
2024/02/25 04:13:11;;;;;;;4.20;2.42;;;;;;;0.44;100.00;96195.06;5027290;28;20038;-63
2024/02/25 04:15:38;;;;;;;4.95;2.40;;;;;;;0.68;100.00;96188.09;5026540;28;20076;-61
2024/02/25 04:18:05;;;;;;;5.15;1.95;;;;;;;0.71;100.00;96185.00;5014951;28;20041;-62
2024/02/25 04:20:31;;;;;;;4.32;1.75;;;;;;;0.55;100.00;96185.53;5022106;28;20048;-62
2024/02/25 04:22:58;;;;;;;6.53;2.45;;;;;;;0.58;100.00;96185.91;5023604;28;20037;-62
2024/02/25 04:25:24;;;;;;;3.97;1.98;;;;;;;0.58;100.00;96180.59;5022216;28;20053;-63
2024/02/25 04:27:51;;;;;;;5.80;2.10;;;;;;;0.54;100.00;96178.56;5017396;28;20041;-62
2024/02/25 04:30:17;;;;;;;4.95;2.63;;;;;;;0.42;100.00;96184.63;5026636;28;20045;-63
2024/02/25 04:32:46;;;;;;;4.18;2.28;;;;;;;0.31;100.00;96178.13;5024987;28;20033;-64
2024/02/25 04:35:13;;;;;;;4.03;2.08;;;;;;;0.34;100.00;96176.88;5019874;28;20045;-63
2024/02/25 04:37:40;;;;;;;3.70;2.28;;;;;;;0.35;100.00;96175.84;5025021;28;20037;-63
2024/02/25 04:40:07;;;;;;;4.60;2.00;;;;;;;0.29;100.00;96182.84;5026845;28;20041;-63
2024/02/25 04:42:34;;;;;;;6.43;2.38;;;;;;;0.25;100.00;96182.47;5020754;28;20038;-63
2024/02/25 04:45:00;;;;;;;4.55;2.20;;;;;;;0.18;100.00;96184.34;5024571;28;20590;-62
2024/02/25 04:47:27;;;;;;;5.03;2.33;;;;;;;0.19;100.00;96177.19;5023801;28;20073;-62
2024/02/25 04:49:54;;;;;;;5.50;2.13;;;;;;;0.20;100.00;96176.16;5025224;28;20128;-63
2024/02/25 04:52:21;;;;;;;3.45;1.90;;;;;;;0.36;100.00;96182.78;5019579;28;20696;-63
2024/02/25 04:54:47;;;;;;;4.20;1.92;;;;;;;0.35;100.00;96191.81;5021657;28;20174;-62
2024/02/25 04:57:14;;;;;;;4.10;2.10;;;;;;;0.32;100.00;96185.09;5021980;28;20079;-63
2024/02/25 04:59:41;;;;;;;4.43;2.00;;;;;;;0.37;100.00;96189.78;5022401;28;20045;-63
2024/02/25 05:02:08;;;;;;;4.28;1.95;;;;;;;0.34;100.00;96196.31;5019327;28;20038;-63
2024/02/25 05:04:36;;;;;;;4.72;2.15;;;;;;;0.38;100.00;96197.53;5020139;28;20112;-62
2024/02/25 05:07:03;;;;;;;3.78;1.90;;;;;;;0.41;100.00;96200.81;5022405;28;20121;-63
2024/02/25 05:09:29;;;;;;;4.45;2.33;;;;;;;0.22;100.00;96198.88;5028369;28;20037;-63
2024/02/25 05:11:56;;;;;;;4.68;2.35;;;;;;;0.13;100.00;96202.81;5027955;28;20041;-63
2024/02/25 05:14:23;;;;;;;4.72;2.25;;;;;;;0.01;100.00;96204.53;5030341;28;20038;-62
2024/02/25 05:16:51;;;;;;;4.00;2.20;;;;;;;-0.06;100.00;96201.91;5020947;28;20038;-62
2024/02/25 05:19:18;;;;;;;4.40;2.25;;;;;;;-0.15;100.00;96203.97;5023788;28;20480;-63
2024/02/25 05:21:45;;;;;;;4.07;2.20;;;;;;;-0.29;100.00;96195.28;5024082;28;20050;-62
2024/02/25 05:24:12;;;;;;;4.35;2.50;;;;;;;-0.55;100.00;96200.47;5028828;28;20041;-63
2024/02/25 05:26:38;;;;;;;4.15;2.10;;;;;;;-0.46;100.00;96197.56;5025939;28;20116;-63
2024/02/25 05:29:05;;;;;;;5.38;2.63;;;;;;;-0.56;100.00;96192.69;5026885;28;20042;-63
2024/02/25 05:31:32;;;;;;;4.00;2.20;;;;;;;-0.48;100.00;96194.31;5027912;28;20064;-61
2024/02/25 05:33:59;;;;;;;7.90;2.35;;;;;;;-0.57;100.00;96186.59;5026774;28;20645;-62
2024/02/25 05:36:26;;;;;;;4.07;2.28;;;;;;;-0.67;100.00;96188.84;5022409;28;20055;-63
2024/02/25 05:38:53;;;;;;;7.97;2.78;;;;;;;-0.64;100.00;96187.59;5024865;28;20405;-63
2024/02/25 05:41:19;;;;;;;5.47;2.38;;;;;;;-0.56;100.00;96187.38;5023382;28;20868;-62
2024/02/25 05:43:46;;;;;;;3.53;2.13;;;;;;;-0.72;100.00;96186.00;5021361;28;20716;-63
2024/02/25 05:46:13;;;;;;;5.32;3.10;;;;;;;-0.73;100.00;96190.53;5029339;28;20045;-63
2024/02/25 05:48:39;;;;;;;5.10;2.60;;;;;;;-0.55;100.00;96192.50;5026523;28;20549;-62
2024/02/25 05:51:07;;;;;;;5.78;3.20;;;;;;;-0.61;100.00;96190.69;5019179;28;20103;-63
2024/02/25 05:53:34;;;;;;;5.95;2.67;;;;;;;-0.58;100.00;96192.09;5021354;28;20029;-61
2024/02/25 05:56:00;;;;;;;7.53;2.95;;;;;;;-0.44;100.00;96198.19;5020674;28;20037;-62
2024/02/25 05:58:27;;;;;;;3.72;2.25;;;;;;;-0.69;100.00;96189.09;5021674;28;20424;-63
2024/02/25 06:00:54;;;;;;;4.93;2.20;;;;;;;-0.81;100.00;96188.88;5023162;28;20042;-62
2024/02/25 06:03:21;;;;;;;5.97;2.20;;;;;;;-0.83;100.00;96182.97;5023997;28;20053;-62
2024/02/25 06:05:47;;;;;;;4.85;2.67;;;;;;;-0.75;100.00;96186.41;5020587;28;20123;-63
2024/02/25 06:08:14;;;;;;;4.00;2.33;;;;;;;-0.86;100.00;96186.03;5020914;28;20053;-63
2024/02/25 06:10:41;;;;;;;4.07;2.30;;;;;;;-0.98;100.00;96191.19;5022014;28;20136;-62
2024/02/25 06:13:07;;;;;;;4.35;2.47;;;;;;;-1.00;100.00;96192.44;5021362;28;20064;-63
2024/02/25 06:15:33;;;;;;;5.70;2.38;;;;;;;-1.02;100.00;96191.81;5026723;28;20669;-62
2024/02/25 06:18:00;;;;;;;4.55;2.25;;;;;;;-1.07;100.00;96198.56;5018206;28;20606;-61
2024/02/25 06:20:26;;;;;;;3.53;2.13;;;;;;;-1.22;100.00;96205.94;5017989;28;20053;-62
2024/02/25 06:22:53;;;;;;;4.90;2.58;;;;;;;-1.22;100.00;96203.28;5018124;28;20041;-63
2024/02/25 06:25:20;;;;;;;4.93;2.65;;;;;;;-1.30;100.00;96209.59;5022565;28;20045;-63
2024/02/25 06:27:46;;;;;;;7.28;2.53;;;;;;;-1.30;100.00;96212.25;5023305;28;20064;-62
2024/02/25 06:30:14;;;;;;;5.05;2.58;;;;;;;-1.28;100.00;96210.22;5031418;28;20044;-63
2024/02/25 06:32:41;;;;;;;5.30;2.38;;;;;;;-1.31;100.00;96218.59;5021354;28;20038;-63
2024/02/25 06:35:08;;;;;;;6.28;2.75;;;;;;;-1.43;100.00;96218.41;5017349;28;20124;-62
2024/02/25 06:37:35;;;;;;;5.65;3.03;;;;;;;-1.49;100.00;96227.16;5022323;28;20563;-62
2024/02/25 06:40:03;;;;;;;5.57;2.55;;;;;;;-1.53;100.00;96216.16;5023959;28;20048;-64
2024/02/25 06:42:30;;;;;;;5.40;3.00;;;;;;;-1.47;100.00;96223.28;5026455;28;20045;-64
2024/02/25 06:44:56;;;;;;;6.60;2.88;;;;;;;-1.39;100.00;96224.13;5022815;28;20121;-63
2024/02/25 06:47:23;;;;;;;4.93;2.65;;;;;;;-1.49;100.00;96227.16;5024830;28;20064;-63
2024/02/25 06:49:52;;;;;;;5.60;3.00;;;;;;;-1.53;100.00;96234.72;5020962;28;20044;-62
2024/02/25 06:52:18;;;;;;;7.70;2.83;;;;;;;-1.56;100.00;96235.13;5017506;28;20057;-63
2024/02/25 06:54:46;;;;;;;5.38;2.78;;;;;;;-1.45;100.00;96239.84;5019798;28;20117;-63
2024/02/25 06:57:15;;;;;;;5.88;2.90;;;;;;;-1.42;100.00;96246.59;5025625;28;20037;-61
2024/02/25 06:59:42;;;;;;;5.63;3.40;;;;;;;-1.48;100.00;96237.59;5024907;28;20176;-64
2024/02/25 07:02:09;;;;;;;6.40;3.08;;;;;;;-1.48;100.00;96240.25;5019415;28;20559;-62
2024/02/25 07:04:36;;;;;;;5.65;3.20;;;;;;;-1.12;100.00;96242.69;5018491;28;20682;-64
2024/02/25 07:07:03;;;;;;;4.82;3.03;;;;;;;-1.22;100.00;96238.63;5016779;28;20037;-63
2024/02/25 07:09:32;;;;;;;6.25;3.10;;;;;;;-1.24;100.00;96235.38;5022091;28;20077;-63
2024/02/25 07:11:58;;;;;;;6.20;3.15;;;;;;;-1.14;100.00;96242.91;5025459;28;20052;-63
2024/02/25 07:14:28;;;;;;;4.13;2.58;;;;;;;-1.12;100.00;96255.97;5023648;28;20128;-63
2024/02/25 07:16:54;;;;;;;9.82;3.40;;;;;;;-0.94;100.00;96242.06;5016967;28;20037;-63
2024/02/25 07:19:21;;;;;;;8.88;4.05;;;;;;;-0.72;100.00;96240.00;5020706;28;20057;-61
2024/02/25 07:21:48;;;;;;;6.30;3.78;;;;;;;-0.44;100.00;96240.75;5024112;28;20041;-62
2024/02/25 07:24:14;;;;;;;9.00;3.92;;;;;;;-0.11;100.00;96239.78;5016067;28;20061;-63
2024/02/25 07:26:41;;;;;;;6.32;3.17;;;;;;;0.19;100.00;96246.41;5021497;28;20053;-62
2024/02/25 07:29:07;;;;;;;8.25;2.97;;;;;;;0.48;100.00;96242.31;5020904;28;20053;-62
2024/02/25 07:31:34;;;;;;;5.07;2.65;;;;;;;0.58;100.00;96236.53;5023702;28;20050;-61
2024/02/25 07:34:01;;;;;;;5.47;2.83;;;;;;;0.75;100.00;96236.81;5021911;28;20029;-63
2024/02/25 07:36:27;;;;;;;4.47;2.40;;;;;;;0.86;100.00;96237.97;5015896;28;20057;-62
2024/02/25 07:38:54;;;;;;;6.72;2.45;;;;;;;1.04;100.00;96231.84;5020655;28;20658;-62
2024/02/25 07:41:20;;;;;;;6.63;3.03;;;;;;;1.24;100.00;96243.34;5024890;28;20151;-63
2024/02/25 07:43:47;;;;;;;5.93;2.35;;;;;;;1.43;100.00;96234.34;5022936;28;20069;-62
2024/02/25 07:46:13;;;;;;;5.93;3.28;;;;;;;1.57;100.00;96234.19;5019103;28;20048;-61
2024/02/25 07:48:42;;;;;;;4.32;2.38;;;;;;;1.68;100.00;96230.81;5019460;28;20045;-62
2024/02/25 07:51:09;;;;;;;4.35;2.30;;;;;;;1.77;100.00;96233.97;5024100;28;20048;-63
2024/02/25 07:53:37;;;;;;;4.60;2.10;;;;;;;1.99;100.00;96236.16;5020605;28;20072;-62
2024/02/25 07:56:04;;;;;;;3.30;1.80;;;;;;;2.15;100.00;96228.56;5028984;28;20552;-62
2024/02/25 07:58:31;;;;;;;3.20;1.70;;;;;;;2.32;100.00;96226.91;5027080;28;20419;-64
2024/02/25 08:00:57;;;;;;;3.65;1.83;;;;;;;2.40;100.00;96231.09;5027057;28;20048;-63
2024/02/25 08:03:24;;;;;;;3.58;1.90;;;;;;;2.50;100.00;96227.88;5027301;28;20041;-62
2024/02/25 08:05:50;;;;;;;3.30;1.80;;;;;;;2.63;100.00;96232.22;5023267;28;20052;-62
2024/02/25 08:08:17;;;;;;;2.75;1.42;;;;;;;2.60;100.00;96225.47;5023304;28;20524;-63
2024/02/25 08:10:44;;;;;;;3.15;1.30;;;;;;;2.75;100.00;96221.53;5023338;28;20189;-63
2024/02/25 08:13:10;;;;;;;3.67;1.50;;;;;;;2.76;100.00;96219.69;5022527;28;20045;-62
2024/02/25 08:15:37;;;;;;;3.03;1.42;;;;;;;2.71;100.00;96226.53;5032373;28;20034;-63
2024/02/25 08:18:03;;;;;;;3.25;1.33;;;;;;;2.77;100.00;96224.81;5022215;28;20045;-63
2024/02/25 08:20:30;;;;;;;2.05;1.25;;;;;;;2.87;100.00;96218.88;5021540;28;20567;-62
2024/02/25 08:22:57;;;;;;;2.97;1.45;;;;;;;2.94;100.00;96227.59;5019449;28;20444;-63
2024/02/25 08:25:24;;;;;;;3.08;1.40;;;;;;;3.10;100.00;96226.09;5021314;28;20048;-63
2024/02/25 08:27:50;;;;;;;3.38;1.27;;;;;;;3.06;100.00;96219.59;5026716;28;20049;-61
2024/02/25 08:30:17;;;;;;;3.72;1.80;;;;;;;3.07;100.00;96217.72;5025050;28;20041;-62
2024/02/25 08:32:43;;;;;;;2.15;1.23;;;;;;;3.11;100.00;96221.56;5021596;28;20496;-64
2024/02/25 08:35:11;;;;;;;3.03;1.40;;;;;;;3.25;100.00;96212.25;5019838;28;20040;-63
2024/02/25 08:37:39;;;;;;;4.85;1.27;;;;;;;3.21;100.00;96213.75;5022039;28;20069;-63
2024/02/25 08:40:06;;;;;;;3.08;1.50;;;;;;;3.15;100.00;96214.72;5018637;28;20045;-63
2024/02/25 08:42:32;;;;;;;1.92;0.95;;;;;;;3.19;100.00;96212.38;5022142;28;20056;-61
2024/02/25 08:44:59;;;;;;;3.03;1.38;;;;;;;3.21;100.00;96218.31;5025436;28;20042;-61
2024/02/25 08:47:26;;;;;;;3.90;1.50;;;;;;;3.48;100.00;96210.63;5024201;28;20048;-63
2024/02/25 08:49:53;;;;;;;2.30;1.20;;;;;;;3.53;100.00;96215.25;5017836;28;20037;-62
2024/02/25 08:52:19;;;;;;;2.53;1.27;;;;;;;3.62;100.00;96221.06;5023432;28;20053;-63
2024/02/25 08:54:46;;;;;;;1.70;1.08;;;;;;;3.68;100.00;96211.28;5020908;28;20754;-63
2024/02/25 08:57:12;;;;;;;2.63;1.40;;;;;;;3.74;100.00;96213.00;5023626;28;20049;-62
2024/02/25 08:59:39;;;;;;;4.13;1.52;;;;;;;3.88;100.00;96214.34;5015831;28;20049;-62
2024/02/25 09:02:06;;;;;;;3.00;1.23;;;;;;;4.10;100.00;96207.53;5020085;28;20479;-62
2024/02/25 09:04:33;;;;;;;7.25;1.50;;;;;;;4.34;100.00;96207.41;5023508;28;20108;-65
2024/02/25 09:07:02;;;;;;;2.95;1.35;;;;;;;4.45;100.00;96208.44;5022485;28;20045;-67
2024/02/25 09:09:29;;;;;;;2.65;0.95;;;;;;;4.52;100.00;96217.94;5025187;28;20124;-64
2024/02/25 09:11:55;;;;;;;1.25;0.95;;;;;;;4.57;100.00;96214.53;5021084;28;20045;-66
2024/02/25 09:14:23;;;;;;;2.75;1.20;;;;;;;4.62;100.00;96220.00;5025337;28;20060;-62
2024/02/25 09:16:49;;;;;;;2.22;0.95;;;;;;;4.61;100.00;96210.31;5023154;28;20096;-65
2024/02/25 09:19:16;;;;;;;2.15;1.00;;;;;;;4.76;100.00;96209.75;5022619;28;20128;-65
2024/02/25 09:21:47;;;;;;;2.33;0.80;;;;;;;5.01;100.00;96211.22;5017118;28;20050;-64
2024/02/25 09:24:14;;;;;;;1.30;0.70;;;;;;;4.77;100.00;96214.06;5021202;28;20055;-66
2024/02/25 09:26:45;;;;;;;2.42;0.90;;;;;;;4.90;100.00;96201.41;5012278;28;20046;-65
2024/02/25 09:29:12;;;;;;;1.33;0.70;;;;;;;4.88;100.00;96203.50;5022780;28;20060;-65
2024/02/25 09:31:39;;;;;;;1.02;0.68;;;;;;;5.10;100.00;96200.06;5012466;28;20986;-63
2024/02/25 09:34:08;;;;;;;1.02;0.65;;;;;;;5.16;100.00;96199.09;5026371;28;20037;-65
2024/02/25 09:36:35;;;;;;;2.10;0.95;;;;;;;5.04;100.00;96189.28;5026749;28;20132;-64
2024/02/25 09:39:03;;;;;;;1.52;0.70;;;;;;;5.22;100.00;96190.06;5017486;28;20049;-67
2024/02/25 09:41:37;;;;;;;2.15;0.90;;;;;;;5.55;100.00;96188.34;5017936;28;20045;-67
2024/02/25 09:44:04;;;;;;;1.98;0.80;;;;;;;5.70;100.00;96182.38;5017913;28;20049;-65
2024/02/25 09:46:34;;;;;;;2.25;0.82;;;;;;;5.81;100.00;96179.78;5021132;28;20664;-65
2024/02/25 09:49:03;;;;;;;2.30;0.80;;;;;;;5.92;100.00;96181.53;5016251;28;20045;-65
2024/02/25 09:51:31;;;;;;;1.05;0.55;;;;;;;5.99;100.00;96175.97;5021018;28;20049;-66
2024/02/25 09:54:00;;;;;;;2.30;0.77;;;;;;;6.13;100.00;96176.44;5018190;28;20528;-65
2024/02/25 09:56:27;;;;;;;2.03;0.55;;;;;;;6.19;100.00;96175.41;5017675;28;20100;-65
2024/02/25 09:58:54;;;;;;;1.55;0.65;;;;;;;5.90;100.00;96182.88;5019869;28;20045;-66
2024/02/25 10:01:20;;;;;;;1.65;0.52;;;;;;;5.82;100.00;96178.75;5023522;28;20048;-67
2024/02/25 10:03:47;;;;;;;1.58;0.70;;;;;;;5.90;100.00;96186.34;5021243;28;20053;-66
2024/02/25 10:06:13;;;;;;;1.20;0.60;;;;;;;5.99;100.00;96184.03;5025596;28;20471;-66
2024/02/25 10:08:48;;;;;;;1.67;0.45;;;;;;;5.60;100.00;96182.22;5013991;28;20064;-67
2024/02/25 10:11:15;;;;;;;1.95;0.95;;;;;;;5.79;100.00;96179.25;5026606;28;20126;-66
2024/02/25 10:13:45;;;;;;;1.75;0.55;;;;;;;5.94;100.00;96168.66;5017516;28;20152;-66
2024/02/25 10:16:17;;;;;;;1.13;0.40;;;;;;;5.97;100.00;96168.16;5019242;28;20043;-66
2024/02/25 10:18:45;;;;;;;0.38;0.38;;;;;;;6.11;100.00;96170.47;5018860;28;20123;-66
2024/02/25 10:21:13;;;;;;;1.63;0.88;;;;;;;6.11;100.00;96170.47;5027016;28;20041;-65
2024/02/25 10:23:39;;;;;;;1.23;0.50;;;;;;;6.24;100.00;96167.38;5020802;28;20054;-65
2024/02/25 10:26:13;;;;;;;0.68;0.38;;;;;;;6.08;100.00;96163.75;5029751;28;20044;-67
2024/02/25 10:28:41;;;;;;;1.13;0.50;;;;;;;6.10;100.00;96161.63;5023107;28;20879;-65
2024/02/25 10:31:18;;;;;;;0.90;0.63;;;;;;;6.29;100.00;96163.13;5020839;28;20045;-66
2024/02/25 10:33:46;;;;;;;2.08;0.77;;;;;;;6.24;99.75;96161.22;5017969;28;20069;-66
2024/02/25 10:36:13;;;;;;;1.65;1.02;;;;;;;6.17;100.00;96153.34;5020164;28;20050;-66
2024/02/25 10:38:44;;;;;;;3.38;1.55;;;;;;;6.34;100.00;96142.47;5018384;28;20103;-65
2024/02/25 10:41:11;;;;;;;2.22;0.82;;;;;;;6.35;100.00;96132.53;5022472;28;20106;-66
2024/02/25 10:43:38;;;;;;;3.38;1.30;;;;;;;6.53;100.00;96138.63;5019048;28;20116;-67
2024/02/25 10:46:24;;;;;;;1.55;0.77;;;;;;;6.60;99.24;96137.31;5016051;28;20039;-66
2024/02/25 10:48:51;;;;;;;1.25;0.43;;;;;;;6.71;98.33;96140.09;5021742;28;20721;-65
2024/02/25 10:51:20;;;;;;;7.95;3.08;;;;;;;6.72;98.07;96147.94;5015572;28;20649;-66
2024/02/25 10:53:47;;;;;;;0.75;0.40;;;;;;;6.54;97.73;96141.03;5012323;28;20045;-66
2024/02/25 10:56:19;;;;;;;6.75;2.75;;;;;;;6.76;99.96;96134.75;5018716;28;20030;-66
2024/02/25 10:58:46;;;;;;;0.57;0.40;;;;;;;6.85;95.74;96132.38;5017185;28;20045;-66
2024/02/25 11:01:13;;;;;;;1.48;0.55;;;;;;;6.85;96.72;96130.50;5020776;28;20042;-65
2024/02/25 11:03:41;;;;;;;1.40;0.65;;;;;;;7.10;97.40;96115.59;5016859;28;20128;-66
2024/02/25 11:06:09;;;;;;;3.28;1.30;;;;;;;6.88;96.35;96124.63;5018655;28;20723;-66
2024/02/25 11:08:42;;;;;;;4.53;2.03;;;;;;;6.84;95.68;96107.38;5016322;28;20049;-67
2024/02/25 11:11:10;;;;;;;2.95;1.20;;;;;;;6.96;93.89;96106.38;5019001;28;20116;-66
2024/02/25 11:13:47;;;;;;;1.88;0.80;;;;;;;7.13;91.92;96106.19;5019073;28;20337;-66
2024/02/25 11:16:14;;;;;;;4.95;2.25;;;;;;;7.39;89.40;96107.13;5020143;28;20033;-65
2024/02/25 11:18:43;;;;;;;0.30;0.28;;;;;;;7.54;90.03;96110.97;5018466;28;20125;-66
2024/02/25 11:21:17;;;;;;;0.50;0.28;;;;;;;7.47;86.47;96097.72;5025628;28;20045;-65
2024/02/25 11:23:46;;;;;;;0.60;0.40;;;;;;;7.27;87.52;96093.06;5017830;28;20052;-63
2024/02/25 11:26:45;;;;;;;5.68;2.15;;;;;;;7.44;85.40;96098.25;5018953;28;20069;-64
2024/02/25 11:29:27;;;;;;;3.88;1.30;;;;;;;7.80;85.42;96086.78;5010729;28;20053;-67